sensor_id;sensor_type;location;lat;lon;timestamp;temperature;humidity
11035;DHT22;5571;48.110;-1.706;2024-01-27T00:01:32;6.70;99.90
11035;DHT22;5571;48.110;-1.706;2024-01-27T00:03:57;6.60;99.90
11035;DHT22;5571;48.110;-1.706;2024-01-27T00:06:23;6.60;99.90
11035;DHT22;5571;48.110;-1.706;2024-01-27T00:08:49;6.50;99.90
11035;DHT22;5571;48.110;-1.706;2024-01-27T00:11:15;6.50;99.90
11035;DHT22;5571;48.110;-1.706;2024-01-27T00:13:40;6.50;99.90
11035;DHT22;5571;48.110;-1.706;2024-01-27T00:16:06;6.50;99.90
11035;DHT22;5571;48.110;-1.706;2024-01-27T00:18:32;6.50;99.90
11035;DHT22;5571;48.110;-1.706;2024-01-27T00:20:58;6.50;99.90
11035;DHT22;5571;48.110;-1.706;2024-01-27T00:23:23;6.50;99.90
11035;DHT22;5571;48.110;-1.706;2024-01-27T00:25:49;6.50;99.90
11035;DHT22;5571;48.110;-1.706;2024-01-27T00:28:15;6.50;99.90
11035;DHT22;5571;48.110;-1.706;2024-01-27T00:30:40;6.40;99.90
11035;DHT22;5571;48.110;-1.706;2024-01-27T00:33:06;6.50;99.90
11035;DHT22;5571;48.110;-1.706;2024-01-27T00:35:31;6.40;99.90
11035;DHT22;5571;48.110;-1.706;2024-01-27T00:37:57;6.40;99.90
11035;DHT22;5571;48.110;-1.706;2024-01-27T00:40:23;6.40;99.90
11035;DHT22;5571;48.110;-1.706;2024-01-27T00:42:49;6.40;99.90
11035;DHT22;5571;48.110;-1.706;2024-01-27T00:45:14;6.30;99.90
11035;DHT22;5571;48.110;-1.706;2024-01-27T00:47:40;6.30;99.90
11035;DHT22;5571;48.110;-1.706;2024-01-27T00:50:06;6.30;99.90
11035;DHT22;5571;48.110;-1.706;2024-01-27T00:52:34;6.20;99.90
11035;DHT22;5571;48.110;-1.706;2024-01-27T00:54:59;6.20;99.90
11035;DHT22;5571;48.110;-1.706;2024-01-27T00:57:25;6.20;99.90
11035;DHT22;5571;48.110;-1.706;2024-01-27T00:59:51;6.20;99.90
11035;DHT22;5571;48.110;-1.706;2024-01-27T01:02:16;6.20;99.90
11035;DHT22;5571;48.110;-1.706;2024-01-27T01:04:42;6.20;99.90
11035;DHT22;5571;48.110;-1.706;2024-01-27T01:07:08;6.20;99.90
11035;DHT22;5571;48.110;-1.706;2024-01-27T01:09:33;6.20;99.90
11035;DHT22;5571;48.110;-1.706;2024-01-27T01:11:59;6.10;99.90
11035;DHT22;5571;48.110;-1.706;2024-01-27T01:14:25;6.00;99.90
11035;DHT22;5571;48.110;-1.706;2024-01-27T01:16:51;6.00;99.90
11035;DHT22;5571;48.110;-1.706;2024-01-27T01:19:16;6.00;99.90
11035;DHT22;5571;48.110;-1.706;2024-01-27T01:21:42;6.00;99.90
11035;DHT22;5571;48.110;-1.706;2024-01-27T01:24:07;6.00;99.90
11035;DHT22;5571;48.110;-1.706;2024-01-27T01:26:33;5.90;99.90
11035;DHT22;5571;48.110;-1.706;2024-01-27T01:28:58;5.90;99.90
11035;DHT22;5571;48.110;-1.706;2024-01-27T01:31:24;5.90;99.90
11035;DHT22;5571;48.110;-1.706;2024-01-27T01:33:50;5.90;99.90
11035;DHT22;5571;48.110;-1.706;2024-01-27T01:36:15;5.90;99.90
11035;DHT22;5571;48.110;-1.706;2024-01-27T01:38:41;5.90;99.90
11035;DHT22;5571;48.110;-1.706;2024-01-27T01:41:06;5.80;99.90
11035;DHT22;5571;48.110;-1.706;2024-01-27T01:43:32;5.90;99.90
11035;DHT22;5571;48.110;-1.706;2024-01-27T01:45:58;5.90;99.90
11035;DHT22;5571;48.110;-1.706;2024-01-27T01:48:24;5.90;99.90
11035;DHT22;5571;48.110;-1.706;2024-01-27T01:50:49;5.80;99.90
11035;DHT22;5571;48.110;-1.706;2024-01-27T01:53:15;5.90;99.90
11035;DHT22;5571;48.110;-1.706;2024-01-27T01:55:41;5.80;99.90
11035;DHT22;5571;48.110;-1.706;2024-01-27T01:58:07;5.90;99.90
11035;DHT22;5571;48.110;-1.706;2024-01-27T02:00:32;5.90;99.90
11035;DHT22;5571;48.110;-1.706;2024-01-27T02:02:58;5.90;99.90
11035;DHT22;5571;48.110;-1.706;2024-01-27T02:05:24;5.90;99.90
11035;DHT22;5571;48.110;-1.706;2024-01-27T02:07:50;5.90;99.90
11035;DHT22;5571;48.110;-1.706;2024-01-27T02:10:17;5.90;99.90
11035;DHT22;5571;48.110;-1.706;2024-01-27T02:12:44;5.90;99.90
11035;DHT22;5571;48.110;-1.706;2024-01-27T02:15:10;5.90;99.90
11035;DHT22;5571;48.110;-1.706;2024-01-27T02:17:37;5.90;99.90
11035;DHT22;5571;48.110;-1.706;2024-01-27T02:20:03;5.90;99.90
11035;DHT22;5571;48.110;-1.706;2024-01-27T02:22:29;5.90;99.90
11035;DHT22;5571;48.110;-1.706;2024-01-27T02:24:55;6.00;99.90
11035;DHT22;5571;48.110;-1.706;2024-01-27T02:27:20;5.90;99.90
11035;DHT22;5571;48.110;-1.706;2024-01-27T02:29:46;6.00;99.90
11035;DHT22;5571;48.110;-1.706;2024-01-27T02:32:12;6.00;99.90
11035;DHT22;5571;48.110;-1.706;2024-01-27T02:34:37;6.00;99.90
11035;DHT22;5571;48.110;-1.706;2024-01-27T02:37:03;6.00;99.90
11035;DHT22;5571;48.110;-1.706;2024-01-27T02:39:29;6.00;99.90
11035;DHT22;5571;48.110;-1.706;2024-01-27T02:41:54;6.00;99.90
11035;DHT22;5571;48.110;-1.706;2024-01-27T02:44:20;6.00;99.90
11035;DHT22;5571;48.110;-1.706;2024-01-27T02:46:45;6.00;99.90
11035;DHT22;5571;48.110;-1.706;2024-01-27T02:49:11;6.00;99.90
11035;DHT22;5571;48.110;-1.706;2024-01-27T02:51:36;6.00;99.90
11035;DHT22;5571;48.110;-1.706;2024-01-27T02:54:02;6.00;99.90
11035;DHT22;5571;48.110;-1.706;2024-01-27T02:56:28;6.00;99.90
11035;DHT22;5571;48.110;-1.706;2024-01-27T02:58:53;6.00;99.90
11035;DHT22;5571;48.110;-1.706;2024-01-27T03:01:19;6.00;99.90
11035;DHT22;5571;48.110;-1.706;2024-01-27T03:03:45;6.00;99.90
11035;DHT22;5571;48.110;-1.706;2024-01-27T03:06:11;6.00;99.90
11035;DHT22;5571;48.110;-1.706;2024-01-27T03:08:36;6.00;99.90
11035;DHT22;5571;48.110;-1.706;2024-01-27T03:11:02;6.00;99.90
11035;DHT22;5571;48.110;-1.706;2024-01-27T03:13:28;5.90;99.90
11035;DHT22;5571;48.110;-1.706;2024-01-27T03:15:54;5.90;99.90
11035;DHT22;5571;48.110;-1.706;2024-01-27T03:18:19;5.90;99.90
11035;DHT22;5571;48.110;-1.706;2024-01-27T03:20:45;5.90;99.90
11035;DHT22;5571;48.110;-1.706;2024-01-27T03:23:10;5.90;99.90
11035;DHT22;5571;48.110;-1.706;2024-01-27T03:25:36;5.90;99.90
11035;DHT22;5571;48.110;-1.706;2024-01-27T03:28:02;5.90;99.90
11035;DHT22;5571;48.110;-1.706;2024-01-27T03:30:27;6.00;99.90
11035;DHT22;5571;48.110;-1.706;2024-01-27T03:32:53;6.00;99.90
11035;DHT22;5571;48.110;-1.706;2024-01-27T03:35:18;6.00;99.90
11035;DHT22;5571;48.110;-1.706;2024-01-27T03:37:44;6.10;99.90
11035;DHT22;5571;48.110;-1.706;2024-01-27T03:40:11;6.00;99.90
11035;DHT22;5571;48.110;-1.706;2024-01-27T03:42:37;6.00;99.90
11035;DHT22;5571;48.110;-1.706;2024-01-27T03:45:02;6.10;99.90
11035;DHT22;5571;48.110;-1.706;2024-01-27T03:47:28;6.10;99.90
11035;DHT22;5571;48.110;-1.706;2024-01-27T03:49:54;6.10;99.90
11035;DHT22;5571;48.110;-1.706;2024-01-27T03:52:19;6.10;99.90
11035;DHT22;5571;48.110;-1.706;2024-01-27T03:54:45;6.10;99.90
11035;DHT22;5571;48.110;-1.706;2024-01-27T03:57:11;6.10;99.90
11035;DHT22;5571;48.110;-1.706;2024-01-27T03:59:36;6.20;99.90
11035;DHT22;5571;48.110;-1.706;2024-01-27T04:02:02;6.10;99.90
11035;DHT22;5571;48.110;-1.706;2024-01-27T04:04:30;6.10;99.90
11035;DHT22;5571;48.110;-1.706;2024-01-27T04:06:56;6.10;99.90
11035;DHT22;5571;48.110;-1.706;2024-01-27T04:09:21;6.10;99.90
11035;DHT22;5571;48.110;-1.706;2024-01-27T04:11:47;6.20;99.90
11035;DHT22;5571;48.110;-1.706;2024-01-27T04:14:12;6.10;99.90
11035;DHT22;5571;48.110;-1.706;2024-01-27T04:16:38;6.10;99.90
11035;DHT22;5571;48.110;-1.706;2024-01-27T04:19:03;6.10;99.90
11035;DHT22;5571;48.110;-1.706;2024-01-27T04:21:29;6.10;99.90
11035;DHT22;5571;48.110;-1.706;2024-01-27T04:23:55;6.10;99.90
11035;DHT22;5571;48.110;-1.706;2024-01-27T04:26:20;6.10;99.90
11035;DHT22;5571;48.110;-1.706;2024-01-27T04:28:46;6.10;99.90
11035;DHT22;5571;48.110;-1.706;2024-01-27T04:31:12;6.10;99.90
11035;DHT22;5571;48.110;-1.706;2024-01-27T04:33:37;6.10;99.90
11035;DHT22;5571;48.110;-1.706;2024-01-27T04:36:03;6.10;99.90
11035;DHT22;5571;48.110;-1.706;2024-01-27T04:38:28;6.10;99.90
11035;DHT22;5571;48.110;-1.706;2024-01-27T04:40:54;6.10;99.90
11035;DHT22;5571;48.110;-1.706;2024-01-27T04:43:20;6.00;99.90
11035;DHT22;5571;48.110;-1.706;2024-01-27T04:45:46;6.00;99.90
11035;DHT22;5571;48.110;-1.706;2024-01-27T04:48:12;6.00;99.90
11035;DHT22;5571;48.110;-1.706;2024-01-27T04:50:38;5.90;99.90
11035;DHT22;5571;48.110;-1.706;2024-01-27T04:53:04;5.90;99.90
11035;DHT22;5571;48.110;-1.706;2024-01-27T04:55:29;5.90;99.90
11035;DHT22;5571;48.110;-1.706;2024-01-27T04:57:55;5.80;99.90
11035;DHT22;5571;48.110;-1.706;2024-01-27T05:00:20;5.80;99.90
11035;DHT22;5571;48.110;-1.706;2024-01-27T05:02:46;5.80;99.90
11035;DHT22;5571;48.110;-1.706;2024-01-27T05:05:12;5.80;99.90
11035;DHT22;5571;48.110;-1.706;2024-01-27T05:07:38;5.70;99.90
11035;DHT22;5571;48.110;-1.706;2024-01-27T05:10:04;5.70;99.90
11035;DHT22;5571;48.110;-1.706;2024-01-27T05:12:30;5.70;99.90
11035;DHT22;5571;48.110;-1.706;2024-01-27T05:14:56;5.70;99.90
11035;DHT22;5571;48.110;-1.706;2024-01-27T05:17:22;5.70;99.90
11035;DHT22;5571;48.110;-1.706;2024-01-27T05:19:49;5.70;99.90
11035;DHT22;5571;48.110;-1.706;2024-01-27T05:22:14;5.70;99.90
11035;DHT22;5571;48.110;-1.706;2024-01-27T05:24:40;5.60;99.90
11035;DHT22;5571;48.110;-1.706;2024-01-27T05:27:05;5.60;99.90
11035;DHT22;5571;48.110;-1.706;2024-01-27T05:29:31;5.60;99.90
11035;DHT22;5571;48.110;-1.706;2024-01-27T05:31:56;5.60;99.90
11035;DHT22;5571;48.110;-1.706;2024-01-27T05:34:22;5.60;99.90
11035;DHT22;5571;48.110;-1.706;2024-01-27T05:36:48;5.50;99.90
11035;DHT22;5571;48.110;-1.706;2024-01-27T05:39:14;5.50;99.90
11035;DHT22;5571;48.110;-1.706;2024-01-27T05:41:39;5.50;99.90
11035;DHT22;5571;48.110;-1.706;2024-01-27T05:44:05;5.50;99.90
11035;DHT22;5571;48.110;-1.706;2024-01-27T05:46:30;5.40;99.90
11035;DHT22;5571;48.110;-1.706;2024-01-27T05:48:56;5.50;99.90
11035;DHT22;5571;48.110;-1.706;2024-01-27T05:51:28;5.40;99.90
11035;DHT22;5571;48.110;-1.706;2024-01-27T05:53:55;5.40;99.90
11035;DHT22;5571;48.110;-1.706;2024-01-27T05:56:21;5.40;99.90
11035;DHT22;5571;48.110;-1.706;2024-01-27T05:58:50;5.40;99.90
11035;DHT22;5571;48.110;-1.706;2024-01-27T06:01:17;5.40;99.90
11035;DHT22;5571;48.110;-1.706;2024-01-27T06:03:43;5.40;99.90
11035;DHT22;5571;48.110;-1.706;2024-01-27T06:06:09;5.40;99.90
11035;DHT22;5571;48.110;-1.706;2024-01-27T06:08:35;5.40;99.90
11035;DHT22;5571;48.110;-1.706;2024-01-27T06:11:01;5.40;99.90
11035;DHT22;5571;48.110;-1.706;2024-01-27T06:13:28;5.30;99.90
11035;DHT22;5571;48.110;-1.706;2024-01-27T06:15:54;5.30;99.90
11035;DHT22;5571;48.110;-1.706;2024-01-27T06:18:19;5.30;99.90
11035;DHT22;5571;48.110;-1.706;2024-01-27T06:20:46;5.30;99.90
11035;DHT22;5571;48.110;-1.706;2024-01-27T06:23:11;5.20;99.90
11035;DHT22;5571;48.110;-1.706;2024-01-27T06:25:37;5.20;99.90
11035;DHT22;5571;48.110;-1.706;2024-01-27T06:28:03;5.20;99.90
11035;DHT22;5571;48.110;-1.706;2024-01-27T06:30:28;5.20;99.90
11035;DHT22;5571;48.110;-1.706;2024-01-27T06:32:54;5.20;99.90
11035;DHT22;5571;48.110;-1.706;2024-01-27T06:35:20;5.20;99.90
11035;DHT22;5571;48.110;-1.706;2024-01-27T06:37:45;5.20;99.90
11035;DHT22;5571;48.110;-1.706;2024-01-27T06:40:11;5.20;99.90
11035;DHT22;5571;48.110;-1.706;2024-01-27T06:42:37;5.20;99.90
11035;DHT22;5571;48.110;-1.706;2024-01-27T06:45:03;5.10;99.90
11035;DHT22;5571;48.110;-1.706;2024-01-27T06:47:29;5.10;99.90
11035;DHT22;5571;48.110;-1.706;2024-01-27T06:49:55;5.20;99.90
11035;DHT22;5571;48.110;-1.706;2024-01-27T06:52:21;5.20;99.90
11035;DHT22;5571;48.110;-1.706;2024-01-27T06:54:46;5.20;99.90
11035;DHT22;5571;48.110;-1.706;2024-01-27T06:57:22;5.10;99.90
11035;DHT22;5571;48.110;-1.706;2024-01-27T06:59:49;5.10;99.90
11035;DHT22;5571;48.110;-1.706;2024-01-27T07:02:23;5.10;99.90
11035;DHT22;5571;48.110;-1.706;2024-01-27T07:04:48;5.10;99.90
11035;DHT22;5571;48.110;-1.706;2024-01-27T07:07:14;5.00;99.90
11035;DHT22;5571;48.110;-1.706;2024-01-27T07:09:39;5.10;99.90
11035;DHT22;5571;48.110;-1.706;2024-01-27T07:12:05;5.00;99.90
11035;DHT22;5571;48.110;-1.706;2024-01-27T07:14:31;5.00;99.90
11035;DHT22;5571;48.110;-1.706;2024-01-27T07:16:57;5.00;99.90
11035;DHT22;5571;48.110;-1.706;2024-01-27T07:19:22;5.00;99.90
11035;DHT22;5571;48.110;-1.706;2024-01-27T07:21:48;5.00;99.90
11035;DHT22;5571;48.110;-1.706;2024-01-27T07:24:13;5.00;99.90
11035;DHT22;5571;48.110;-1.706;2024-01-27T07:26:39;5.00;99.90
11035;DHT22;5571;48.110;-1.706;2024-01-27T07:29:05;5.00;99.90
11035;DHT22;5571;48.110;-1.706;2024-01-27T07:31:30;5.00;99.90
11035;DHT22;5571;48.110;-1.706;2024-01-27T07:33:56;5.00;99.90
11035;DHT22;5571;48.110;-1.706;2024-01-27T07:36:22;5.00;99.90
11035;DHT22;5571;48.110;-1.706;2024-01-27T07:38:47;5.00;99.90
11035;DHT22;5571;48.110;-1.706;2024-01-27T07:41:13;5.00;99.90
11035;DHT22;5571;48.110;-1.706;2024-01-27T07:43:39;5.00;99.90
11035;DHT22;5571;48.110;-1.706;2024-01-27T07:46:05;5.00;99.90
11035;DHT22;5571;48.110;-1.706;2024-01-27T07:48:30;5.00;99.90
11035;DHT22;5571;48.110;-1.706;2024-01-27T07:50:56;4.90;99.90
11035;DHT22;5571;48.110;-1.706;2024-01-27T07:53:22;5.00;99.90
11035;DHT22;5571;48.110;-1.706;2024-01-27T07:55:47;5.00;99.90
11035;DHT22;5571;48.110;-1.706;2024-01-27T07:58:13;4.90;99.90
11035;DHT22;5571;48.110;-1.706;2024-01-27T08:00:38;4.90;99.90
11035;DHT22;5571;48.110;-1.706;2024-01-27T08:03:04;4.90;99.90
11035;DHT22;5571;48.110;-1.706;2024-01-27T08:05:30;5.00;99.90
11035;DHT22;5571;48.110;-1.706;2024-01-27T08:07:56;4.90;99.90
11035;DHT22;5571;48.110;-1.706;2024-01-27T08:10:22;5.00;99.90
11035;DHT22;5571;48.110;-1.706;2024-01-27T08:12:48;5.00;99.90
11035;DHT22;5571;48.110;-1.706;2024-01-27T08:15:13;5.00;99.90
11035;DHT22;5571;48.110;-1.706;2024-01-27T08:17:39;5.00;99.90
11035;DHT22;5571;48.110;-1.706;2024-01-27T08:20:05;5.00;99.90
11035;DHT22;5571;48.110;-1.706;2024-01-27T08:22:31;5.00;99.90
11035;DHT22;5571;48.110;-1.706;2024-01-27T08:24:57;5.10;99.90
11035;DHT22;5571;48.110;-1.706;2024-01-27T08:27:22;5.10;99.90
11035;DHT22;5571;48.110;-1.706;2024-01-27T08:29:49;5.10;99.90
11035;DHT22;5571;48.110;-1.706;2024-01-27T08:32:16;5.20;99.90
11035;DHT22;5571;48.110;-1.706;2024-01-27T08:34:42;5.20;99.90
11035;DHT22;5571;48.110;-1.706;2024-01-27T08:37:15;5.20;99.90
11035;DHT22;5571;48.110;-1.706;2024-01-27T08:39:44;5.20;99.90
11035;DHT22;5571;48.110;-1.706;2024-01-27T08:42:10;5.30;99.90
11035;DHT22;5571;48.110;-1.706;2024-01-27T08:44:36;5.30;99.90
11035;DHT22;5571;48.110;-1.706;2024-01-27T08:47:02;5.30;99.90
11035;DHT22;5571;48.110;-1.706;2024-01-27T08:49:28;5.40;99.90
11035;DHT22;5571;48.110;-1.706;2024-01-27T08:51:54;5.50;99.90
11035;DHT22;5571;48.110;-1.706;2024-01-27T08:54:21;5.50;99.90
11035;DHT22;5571;48.110;-1.706;2024-01-27T08:56:46;5.40;99.90
11035;DHT22;5571;48.110;-1.706;2024-01-27T08:59:12;5.50;99.90
11035;DHT22;5571;48.110;-1.706;2024-01-27T09:01:38;5.60;99.90
11035;DHT22;5571;48.110;-1.706;2024-01-27T09:04:03;5.60;99.90
11035;DHT22;5571;48.110;-1.706;2024-01-27T09:06:29;5.60;99.90
11035;DHT22;5571;48.110;-1.706;2024-01-27T09:08:54;5.60;99.90
11035;DHT22;5571;48.110;-1.706;2024-01-27T09:11:20;5.60;99.90
11035;DHT22;5571;48.110;-1.706;2024-01-27T09:13:48;5.70;99.90
11035;DHT22;5571;48.110;-1.706;2024-01-27T09:16:14;5.70;99.90
11035;DHT22;5571;48.110;-1.706;2024-01-27T09:18:40;5.80;99.90
11035;DHT22;5571;48.110;-1.706;2024-01-27T09:21:06;5.80;99.90
11035;DHT22;5571;48.110;-1.706;2024-01-27T09:23:32;5.80;99.90
11035;DHT22;5571;48.110;-1.706;2024-01-27T09:25:57;5.90;99.90
11035;DHT22;5571;48.110;-1.706;2024-01-27T09:28:24;5.90;99.90
11035;DHT22;5571;48.110;-1.706;2024-01-27T09:30:49;5.90;99.90
11035;DHT22;5571;48.110;-1.706;2024-01-27T09:33:15;6.00;99.90
11035;DHT22;5571;48.110;-1.706;2024-01-27T09:35:42;6.10;99.90
11035;DHT22;5571;48.110;-1.706;2024-01-27T09:38:08;6.10;99.90
11035;DHT22;5571;48.110;-1.706;2024-01-27T09:40:37;6.30;99.90
11035;DHT22;5571;48.110;-1.706;2024-01-27T09:43:02;6.20;99.90
11035;DHT22;5571;48.110;-1.706;2024-01-27T09:45:28;6.20;99.90
11035;DHT22;5571;48.110;-1.706;2024-01-27T09:47:56;6.40;99.90
11035;DHT22;5571;48.110;-1.706;2024-01-27T09:50:24;6.40;99.90
11035;DHT22;5571;48.110;-1.706;2024-01-27T09:52:50;6.40;99.90
11035;DHT22;5571;48.110;-1.706;2024-01-27T09:55:15;6.40;99.90
11035;DHT22;5571;48.110;-1.706;2024-01-27T09:57:41;6.50;99.90
11035;DHT22;5571;48.110;-1.706;2024-01-27T10:00:10;6.50;99.90
11035;DHT22;5571;48.110;-1.706;2024-01-27T10:02:43;6.60;99.90
11035;DHT22;5571;48.110;-1.706;2024-01-27T10:05:10;6.80;99.90
11035;DHT22;5571;48.110;-1.706;2024-01-27T10:07:37;6.90;99.90
11035;DHT22;5571;48.110;-1.706;2024-01-27T10:10:03;7.00;99.90
11035;DHT22;5571;48.110;-1.706;2024-01-27T10:12:29;7.10;99.90
11035;DHT22;5571;48.110;-1.706;2024-01-27T10:14:55;7.30;99.90
11035;DHT22;5571;48.110;-1.706;2024-01-27T10:17:21;7.30;99.90
11035;DHT22;5571;48.110;-1.706;2024-01-27T10:19:58;7.40;99.90
11035;DHT22;5571;48.110;-1.706;2024-01-27T10:22:24;7.40;99.90
11035;DHT22;5571;48.110;-1.706;2024-01-27T10:24:49;7.40;99.90
11035;DHT22;5571;48.110;-1.706;2024-01-27T10:27:15;7.40;99.90
11035;DHT22;5571;48.110;-1.706;2024-01-27T10:29:54;7.40;99.90
11035;DHT22;5571;48.110;-1.706;2024-01-27T10:32:21;7.30;99.90
11035;DHT22;5571;48.110;-1.706;2024-01-27T10:34:50;7.30;99.90
11035;DHT22;5571;48.110;-1.706;2024-01-27T10:37:23;7.30;99.90
11035;DHT22;5571;48.110;-1.706;2024-01-27T10:39:48;7.20;99.90
11035;DHT22;5571;48.110;-1.706;2024-01-27T10:42:15;7.20;99.90
11035;DHT22;5571;48.110;-1.706;2024-01-27T10:44:41;7.20;99.90
11035;DHT22;5571;48.110;-1.706;2024-01-27T10:47:11;7.20;99.90
11035;DHT22;5571;48.110;-1.706;2024-01-27T10:49:42;7.20;99.90
11035;DHT22;5571;48.110;-1.706;2024-01-27T10:52:11;7.30;99.90
11035;DHT22;5571;48.110;-1.706;2024-01-27T10:54:40;7.40;99.90
11035;DHT22;5571;48.110;-1.706;2024-01-27T10:57:08;7.60;99.90
11035;DHT22;5571;48.110;-1.706;2024-01-27T10:59:35;7.50;99.90
11035;DHT22;5571;48.110;-1.706;2024-01-27T11:02:02;7.50;99.90
11035;DHT22;5571;48.110;-1.706;2024-01-27T11:04:30;7.50;99.90
11035;DHT22;5571;48.110;-1.706;2024-01-27T11:06:58;7.80;99.90
11035;DHT22;5571;48.110;-1.706;2024-01-27T11:09:25;8.00;99.90
11035;DHT22;5571;48.110;-1.706;2024-01-27T11:11:51;8.30;99.90
11035;DHT22;5571;48.110;-1.706;2024-01-27T11:14:17;8.50;99.90
11035;DHT22;5571;48.110;-1.706;2024-01-27T11:16:43;8.80;99.90
11035;DHT22;5571;48.110;-1.706;2024-01-27T11:19:12;8.90;99.90
11035;DHT22;5571;48.110;-1.706;2024-01-27T11:21:38;9.10;99.90
11035;DHT22;5571;48.110;-1.706;2024-01-27T11:24:15;9.10;99.90
11035;DHT22;5571;48.110;-1.706;2024-01-27T11:26:41;9.20;99.90
11035;DHT22;5571;48.110;-1.706;2024-01-27T11:29:08;9.30;99.90
11035;DHT22;5571;48.110;-1.706;2024-01-27T11:31:45;9.30;99.90
11035;DHT22;5571;48.110;-1.706;2024-01-27T11:34:11;9.60;99.90
11035;DHT22;5571;48.110;-1.706;2024-01-27T11:36:42;9.50;99.90
11035;DHT22;5571;48.110;-1.706;2024-01-27T11:39:26;9.50;99.90
11035;DHT22;5571;48.110;-1.706;2024-01-27T11:41:52;9.60;99.90
11035;DHT22;5571;48.110;-1.706;2024-01-27T11:44:19;9.70;99.90
11035;DHT22;5571;48.110;-1.706;2024-01-27T11:46:45;9.80;99.90
11035;DHT22;5571;48.110;-1.706;2024-01-27T11:49:15;9.80;99.90
11035;DHT22;5571;48.110;-1.706;2024-01-27T11:51:42;9.90;99.90
11035;DHT22;5571;48.110;-1.706;2024-01-27T11:54:08;10.20;99.90
11035;DHT22;5571;48.110;-1.706;2024-01-27T11:56:33;10.30;99.90
11035;DHT22;5571;48.110;-1.706;2024-01-27T11:58:59;10.40;99.90
11035;DHT22;5571;48.110;-1.706;2024-01-27T12:01:25;10.50;99.90
11035;DHT22;5571;48.110;-1.706;2024-01-27T12:03:50;10.50;99.90
11035;DHT22;5571;48.110;-1.706;2024-01-27T12:06:17;10.50;99.90
11035;DHT22;5571;48.110;-1.706;2024-01-27T12:08:42;10.50;99.90
11035;DHT22;5571;48.110;-1.706;2024-01-27T12:11:13;10.60;99.90
11035;DHT22;5571;48.110;-1.706;2024-01-27T12:13:39;10.60;99.90
11035;DHT22;5571;48.110;-1.706;2024-01-27T12:16:05;10.50;99.90
11035;DHT22;5571;48.110;-1.706;2024-01-27T12:18:31;10.70;99.90
11035;DHT22;5571;48.110;-1.706;2024-01-27T12:20:57;10.80;99.90
11035;DHT22;5571;48.110;-1.706;2024-01-27T12:23:25;10.80;99.90
11035;DHT22;5571;48.110;-1.706;2024-01-27T12:25:54;10.80;99.90
11035;DHT22;5571;48.110;-1.706;2024-01-27T12:28:22;10.70;99.90
11035;DHT22;5571;48.110;-1.706;2024-01-27T12:30:49;10.70;99.90
11035;DHT22;5571;48.110;-1.706;2024-01-27T12:33:16;10.60;99.90
11035;DHT22;5571;48.110;-1.706;2024-01-27T12:35:45;10.60;99.90
11035;DHT22;5571;48.110;-1.706;2024-01-27T12:38:12;10.60;99.90
11035;DHT22;5571;48.110;-1.706;2024-01-27T12:40:38;10.80;99.90
11035;DHT22;5571;48.110;-1.706;2024-01-27T12:43:03;10.90;99.90
11035;DHT22;5571;48.110;-1.706;2024-01-27T12:45:29;11.20;99.90
11035;DHT22;5571;48.110;-1.706;2024-01-27T12:47:55;11.40;99.90
11035;DHT22;5571;48.110;-1.706;2024-01-27T12:50:20;11.60;99.90
11035;DHT22;5571;48.110;-1.706;2024-01-27T12:52:46;11.60;99.90
11035;DHT22;5571;48.110;-1.706;2024-01-27T12:55:13;11.70;99.90
11035;DHT22;5571;48.110;-1.706;2024-01-27T12:57:38;11.80;99.90
11035;DHT22;5571;48.110;-1.706;2024-01-27T13:00:07;11.80;99.90
11035;DHT22;5571;48.110;-1.706;2024-01-27T13:02:36;11.90;99.90
11035;DHT22;5571;48.110;-1.706;2024-01-27T13:05:02;12.00;99.90
11035;DHT22;5571;48.110;-1.706;2024-01-27T13:07:28;12.30;99.90
11035;DHT22;5571;48.110;-1.706;2024-01-27T13:09:53;12.30;99.90
11035;DHT22;5571;48.110;-1.706;2024-01-27T13:12:19;12.40;99.90
11035;DHT22;5571;48.110;-1.706;2024-01-27T13:14:45;12.50;99.90
11035;DHT22;5571;48.110;-1.706;2024-01-27T13:17:10;12.50;99.90
11035;DHT22;5571;48.110;-1.706;2024-01-27T13:19:36;12.70;99.90
11035;DHT22;5571;48.110;-1.706;2024-01-27T13:22:02;12.80;99.90
11035;DHT22;5571;48.110;-1.706;2024-01-27T13:24:28;12.90;99.90
11035;DHT22;5571;48.110;-1.706;2024-01-27T13:26:53;13.00;99.90
11035;DHT22;5571;48.110;-1.706;2024-01-27T13:29:19;12.80;99.90
11035;DHT22;5571;48.110;-1.706;2024-01-27T13:31:45;12.70;99.90
11035;DHT22;5571;48.110;-1.706;2024-01-27T13:34:12;12.90;99.90
11035;DHT22;5571;48.110;-1.706;2024-01-27T13:36:38;13.00;99.90
11035;DHT22;5571;48.110;-1.706;2024-01-27T13:39:03;13.00;99.90
11035;DHT22;5571;48.110;-1.706;2024-01-27T13:41:29;12.90;99.90
11035;DHT22;5571;48.110;-1.706;2024-01-27T13:43:55;13.00;99.90
11035;DHT22;5571;48.110;-1.706;2024-01-27T13:46:21;13.10;99.90
11035;DHT22;5571;48.110;-1.706;2024-01-27T13:48:48;13.20;99.90
11035;DHT22;5571;48.110;-1.706;2024-01-27T13:51:13;13.30;99.90
11035;DHT22;5571;48.110;-1.706;2024-01-27T13:53:39;13.20;99.90
11035;DHT22;5571;48.110;-1.706;2024-01-27T13:56:05;13.10;99.90
11035;DHT22;5571;48.110;-1.706;2024-01-27T13:58:31;12.90;99.90
11035;DHT22;5571;48.110;-1.706;2024-01-27T14:00:56;12.70;99.90
11035;DHT22;5571;48.110;-1.706;2024-01-27T14:03:22;12.60;99.90
11035;DHT22;5571;48.110;-1.706;2024-01-27T14:05:48;12.50;99.90
11035;DHT22;5571;48.110;-1.706;2024-01-27T14:08:14;12.50;99.90
11035;DHT22;5571;48.110;-1.706;2024-01-27T14:10:40;12.40;99.90
11035;DHT22;5571;48.110;-1.706;2024-01-27T14:13:08;12.30;99.90
11035;DHT22;5571;48.110;-1.706;2024-01-27T14:15:37;12.40;99.90
11035;DHT22;5571;48.110;-1.706;2024-01-27T14:18:03;12.30;99.90
11035;DHT22;5571;48.110;-1.706;2024-01-27T14:20:32;12.40;99.90
11035;DHT22;5571;48.110;-1.706;2024-01-27T14:23:03;12.40;99.90
11035;DHT22;5571;48.110;-1.706;2024-01-27T14:25:29;12.40;99.90
11035;DHT22;5571;48.110;-1.706;2024-01-27T14:27:54;12.30;99.90
11035;DHT22;5571;48.110;-1.706;2024-01-27T14:30:20;12.30;99.90
11035;DHT22;5571;48.110;-1.706;2024-01-27T14:32:46;12.30;99.90
11035;DHT22;5571;48.110;-1.706;2024-01-27T14:35:11;12.30;99.90
11035;DHT22;5571;48.110;-1.706;2024-01-27T14:37:37;12.30;99.90
11035;DHT22;5571;48.110;-1.706;2024-01-27T14:40:04;12.40;99.90
11035;DHT22;5571;48.110;-1.706;2024-01-27T14:42:30;12.40;99.90
11035;DHT22;5571;48.110;-1.706;2024-01-27T14:44:56;12.40;99.90
11035;DHT22;5571;48.110;-1.706;2024-01-27T14:47:22;12.30;99.90
11035;DHT22;5571;48.110;-1.706;2024-01-27T14:49:47;12.30;99.90
11035;DHT22;5571;48.110;-1.706;2024-01-27T14:52:13;12.40;99.90
11035;DHT22;5571;48.110;-1.706;2024-01-27T14:54:38;12.50;99.90
11035;DHT22;5571;48.110;-1.706;2024-01-27T14:57:07;12.60;99.90
11035;DHT22;5571;48.110;-1.706;2024-01-27T14:59:35;12.50;99.90
11035;DHT22;5571;48.110;-1.706;2024-01-27T15:02:00;12.60;99.90
11035;DHT22;5571;48.110;-1.706;2024-01-27T15:04:27;12.70;99.90
11035;DHT22;5571;48.110;-1.706;2024-01-27T15:06:56;12.80;99.90
11035;DHT22;5571;48.110;-1.706;2024-01-27T15:09:23;13.00;99.90
11035;DHT22;5571;48.110;-1.706;2024-01-27T15:11:49;13.10;99.90
11035;DHT22;5571;48.110;-1.706;2024-01-27T15:14:15;13.30;99.90
11035;DHT22;5571;48.110;-1.706;2024-01-27T15:16:40;13.40;99.90
11035;DHT22;5571;48.110;-1.706;2024-01-27T15:19:06;13.40;99.90
11035;DHT22;5571;48.110;-1.706;2024-01-27T15:21:32;13.40;99.90
11035;DHT22;5571;48.110;-1.706;2024-01-27T15:23:58;13.30;99.90
11035;DHT22;5571;48.110;-1.706;2024-01-27T15:26:23;13.30;99.90
11035;DHT22;5571;48.110;-1.706;2024-01-27T15:28:49;13.30;99.90
11035;DHT22;5571;48.110;-1.706;2024-01-27T15:31:15;13.30;99.90
11035;DHT22;5571;48.110;-1.706;2024-01-27T15:33:40;13.20;99.90
11035;DHT22;5571;48.110;-1.706;2024-01-27T15:36:07;13.20;99.90